createdAt,value
2023-01-06T05:16:55.955Z,100474.38
2023-01-06T05:19:22.459Z,100461.47
2023-01-06T05:21:49.037Z,100468.25
2023-01-06T05:24:15.593Z,100460.75
2023-01-06T05:26:42.092Z,100465.50
2023-01-06T05:29:12.643Z,100455.00
2023-01-06T05:31:39.216Z,100455.31
2023-01-06T05:34:05.864Z,100467.78
2023-01-06T05:36:32.396Z,100466.69
2023-01-06T05:38:59.027Z,100457.59
2023-01-06T05:41:25.587Z,100466.06
2023-01-06T05:43:52.116Z,100474.34
2023-01-06T05:46:18.699Z,100469.41
2023-01-06T05:48:45.254Z,100471.09
2023-01-06T05:51:17.048Z,100463.03
2023-01-06T05:53:45.585Z,100465.75
2023-01-06T05:56:14.830Z,100471.03
2023-01-06T05:58:44.916Z,100462.69
2023-01-06T06:01:23.617Z,100465.47
2023-01-06T06:03:51.087Z,100476.63
2023-01-06T06:06:18.594Z,100484.59
2023-01-06T06:08:45.184Z,100492.50
2023-01-06T06:11:14.668Z,100493.81
2023-01-06T06:13:52.320Z,100477.19
2023-01-06T06:16:21.335Z,100475.25
2023-01-06T06:18:50.524Z,100477.16
2023-01-06T06:21:19.876Z,100480.44
2023-01-06T06:23:46.611Z,100486.09
2023-01-06T06:26:14.820Z,100472.56
2023-01-06T06:28:42.219Z,100477.13
2023-01-06T06:31:17.955Z,100482.03
2023-01-06T06:33:44.851Z,100483.47
2023-01-06T06:36:15.602Z,100487.91
2023-01-06T06:38:43.919Z,100480.44
2023-01-06T06:41:10.859Z,100483.97
2023-01-06T06:43:38.001Z,100480.97
2023-01-06T06:46:05.163Z,100481.06
2023-01-06T06:48:31.869Z,100485.28
2023-01-06T06:51:06.898Z,100477.69
2023-01-06T06:53:34.842Z,100482.88
2023-01-06T06:56:02.182Z,100493.25
2023-01-06T06:58:28.953Z,100486.22
2023-01-06T07:00:55.548Z,100495.66
2023-01-06T07:03:22.955Z,100491.44
2023-01-06T07:05:53.778Z,100489.91
2023-01-06T07:26:25.222Z,100493.22
2023-01-06T07:28:51.745Z,100487.47
2023-01-06T07:31:18.393Z,100487.16
2023-01-06T07:33:45.093Z,100497.97
2023-01-06T07:36:11.656Z,100502.03
2023-01-06T07:38:38.187Z,100491.34
2023-01-06T07:41:04.760Z,100502.41
2023-01-06T07:43:31.262Z,100505.66
2023-01-06T07:45:57.766Z,100508.38
2023-01-06T07:48:24.268Z,100515.50
2023-01-06T07:50:52.026Z,100502.34
2023-01-06T07:53:18.780Z,100503.66
2023-01-06T07:55:55.362Z,100518.22
2023-01-06T07:58:26.243Z,100511.31
2023-01-06T08:00:52.793Z,100519.16
2023-01-06T08:03:19.395Z,100519.63
2023-01-06T08:05:46.070Z,100529.25
2023-01-06T08:08:12.635Z,100525.53
2023-01-06T08:10:40.709Z,100514.88
2023-01-06T08:13:07.587Z,100515.00
2023-01-06T08:15:36.116Z,100517.03
2023-01-06T08:18:02.925Z,100529.22
2023-01-06T08:20:29.445Z,100519.47
2023-01-06T08:22:57.952Z,100519.13
2023-01-06T08:25:24.487Z,100519.00
2023-01-06T08:27:51.227Z,100517.69
2023-01-06T08:30:21.469Z,100525.38
2023-01-06T08:32:49.284Z,100519.69
2023-01-06T08:35:16.603Z,100527.38
2023-01-06T08:37:43.304Z,100517.22
2023-01-06T08:40:12.820Z,100512.06
2023-01-06T08:42:39.358Z,100509.13
2023-01-06T08:45:07.704Z,100516.97
2023-01-06T08:47:35.660Z,100522.59
2023-01-06T08:50:02.401Z,100520.72
2023-01-06T08:52:29.037Z,100517.94
2023-01-06T08:54:55.524Z,100524.81
2023-01-06T08:57:22.198Z,100512.28
2023-01-06T08:59:48.717Z,100521.56
2023-01-06T09:02:43.358Z,100516.97
2023-01-06T09:05:12.833Z,100521.34
2023-01-06T09:07:40.447Z,100521.19
2023-01-06T09:10:07.717Z,100517.31
2023-01-06T09:12:35.482Z,100520.75
2023-01-06T09:15:02.056Z,100525.16
2023-01-06T09:17:29.644Z,100515.44
2023-01-06T09:19:58.207Z,100524.06
2023-01-06T09:22:24.763Z,100529.34
2023-01-06T09:24:51.353Z,100546.16
2023-01-06T09:27:18.425Z,100537.97
2023-01-06T09:29:45.118Z,100541.22
2023-01-06T09:32:12.843Z,100546.50
2023-01-06T09:34:40.389Z,100553.91
2023-01-06T09:37:07.854Z,100551.13
2023-01-06T09:39:43.392Z,100557.66
2023-01-06T09:42:38.271Z,100556.78
2023-01-06T09:45:06.278Z,100555.09
2023-01-06T09:47:38.008Z,100555.88
2023-01-06T09:50:08.596Z,100559.31
2023-01-06T09:52:42.873Z,100559.94
2023-01-06T09:55:19.589Z,100566.19
2023-01-06T09:57:59.070Z,100568.53
2023-01-06T10:00:55.323Z,100576.56
2023-01-06T10:03:26.598Z,100570.97
2023-01-06T10:06:20.642Z,100570.50
2023-01-06T10:09:01.813Z,100558.06
2023-01-06T10:11:46.538Z,100567.63
2023-01-06T10:14:42.485Z,100568.28
2023-01-06T10:17:37.396Z,100572.53
2023-01-06T10:20:45.018Z,100553.56
2023-01-06T10:23:51.020Z,100556.69
2023-01-06T10:27:11.423Z,100552.78
2023-01-06T10:29:43.484Z,100550.72
2023-01-06T10:32:16.510Z,100555.47
2023-01-06T10:34:50.133Z,100559.25
2023-01-06T10:37:16.614Z,100559.03
2023-01-06T10:39:48.927Z,100560.22
2023-01-06T10:43:03.346Z,100553.13
2023-01-06T10:45:36.449Z,100550.47
2023-01-06T10:48:06.509Z,100549.28
2023-01-06T10:50:47.235Z,100548.72
2023-01-06T10:56:07.143Z,100533.75
2023-01-06T10:58:52.304Z,100533.50
2023-01-06T11:01:27.552Z,100517.53
2023-01-06T11:04:12.156Z,100521.13
2023-01-06T11:06:42.974Z,100513.59
2023-01-06T11:09:40.295Z,100507.47
2023-01-06T11:12:36.750Z,100512.13
2023-01-06T11:15:17.120Z,100502.84
2023-01-06T11:17:49.744Z,100492.94
2023-01-06T11:20:16.342Z,100496.84
2023-01-06T11:22:44.037Z,100508.59
2023-01-06T11:25:19.853Z,100502.94
2023-01-06T11:28:09.381Z,100505.94
2023-01-06T11:30:44.449Z,100509.31
2023-01-06T11:33:17.403Z,100501.50
2023-01-06T11:35:44.194Z,100504.25
2023-01-06T11:38:16.579Z,100500.75
2023-01-06T11:40:46.839Z,100493.13
2023-01-06T11:43:16.552Z,100493.50
2023-01-06T11:45:54.653Z,100492.31
2023-01-06T11:48:27.398Z,100489.16
2023-01-06T11:51:05.899Z,100499.25
2023-01-06T11:53:34.262Z,100491.31
2023-01-06T11:56:14.344Z,100490.28
2023-01-06T11:58:56.013Z,100482.25
2023-01-06T12:01:43.324Z,100491.91
2023-01-06T12:04:34.858Z,100485.91
2023-01-06T12:07:25.425Z,100478.47
2023-01-06T12:09:54.639Z,100476.03
2023-01-06T12:12:26.997Z,100478.47
2023-01-06T12:14:58.174Z,100461.56
2023-01-06T12:17:36.323Z,100467.03
2023-01-06T12:20:28.204Z,100476.38
2023-01-06T12:23:02.091Z,100479.31
2023-01-06T12:25:44.752Z,100469.53
2023-01-06T12:28:36.851Z,100469.47
2023-01-06T12:31:18.820Z,100459.97
2023-01-06T12:34:05.571Z,100464.44
2023-01-06T12:36:42.210Z,100458.66
2023-01-06T12:39:13.053Z,100466.97
2023-01-06T12:41:51.473Z,100465.84
2023-01-06T12:44:45.069Z,100468.09
2023-01-06T12:47:37.271Z,100463.28
2023-01-06T12:50:38.971Z,100463.72
2023-01-06T12:53:42.947Z,100457.06
2023-01-06T12:56:37.372Z,100463.28
2023-01-06T12:59:06.915Z,100464.41
2023-01-06T13:01:38.309Z,100464.53
2023-01-06T13:04:31.910Z,100461.63
2023-01-06T13:07:10.533Z,100481.19
2023-01-06T13:09:49.137Z,100477.88
2023-01-06T13:12:27.812Z,100464.09
2023-01-06T13:15:26.867Z,100475.88
2023-01-06T13:18:05.438Z,100480.09
2023-01-06T13:20:42.414Z,100473.16
2023-01-06T13:23:29.225Z,100475.22
2023-01-06T13:26:01.716Z,100480.75
2023-01-06T13:29:01.846Z,100463.28
2023-01-06T13:31:55.338Z,100460.13
2023-01-06T13:34:43.870Z,100463.25
2023-01-06T13:37:40.260Z,100454.94
2023-01-06T13:40:20.772Z,100458.72
2023-01-06T13:42:58.173Z,100462.50
2023-01-06T13:45:30.762Z,100458.91
2023-01-06T13:47:59.429Z,100465.50
2023-01-06T13:50:26.409Z,100470.81
2023-01-06T13:52:54.035Z,100475.22
2023-01-06T13:55:29.010Z,100475.38
2023-01-06T13:57:56.385Z,100468.19
2023-01-06T14:00:26.993Z,100468.47
2023-01-06T14:02:54.010Z,100474.59
2023-01-06T14:05:21.050Z,100480.84
2023-01-06T14:08:01.022Z,100484.41
2023-01-06T14:10:37.895Z,100488.09
2023-01-06T14:13:27.062Z,100477.03
2023-01-06T14:15:57.782Z,100471.72
2023-01-06T14:18:32.274Z,100479.28
2023-01-06T14:21:15.762Z,100478.81
2023-01-06T14:23:53.980Z,100483.50
2023-01-06T14:26:41.350Z,100489.84
2023-01-06T14:29:56.172Z,100486.41
2023-01-06T14:32:25.661Z,100493.25
2023-01-06T14:34:54.643Z,100484.63
2023-01-06T14:37:47.523Z,100492.44
2023-01-06T14:40:24.993Z,100479.44
2023-01-06T14:42:59.072Z,100484.56
2023-01-06T15:32:33.470Z,100498.78
2023-01-06T15:35:00.214Z,100503.41
2023-01-06T15:37:34.721Z,100512.66
2023-01-06T15:40:02.053Z,100508.50
2023-01-06T15:42:30.180Z,100503.28
2023-01-06T15:45:00.180Z,100507.13
2023-01-06T15:50:22.772Z,100502.06
2023-01-06T15:52:57.282Z,100502.28
2023-01-06T15:55:34.035Z,100511.84
2023-01-06T15:58:25.641Z,100517.13
2023-01-06T16:01:12.981Z,100520.00
2023-01-06T16:03:41.767Z,100525.06
2023-01-06T16:06:12.294Z,100533.59
2023-01-06T16:08:41.831Z,100526.31
2023-01-06T16:11:18.364Z,100526.03
2023-01-06T16:13:57.189Z,100529.22
2023-01-06T16:16:42.929Z,100529.44
2023-01-06T16:19:16.393Z,100534.88
2023-01-06T16:21:44.949Z,100524.16
2023-01-06T16:24:22.016Z,100525.00
2023-01-06T16:26:59.227Z,100532.22
2023-01-06T16:29:39.832Z,100530.00
2023-01-06T16:33:39.052Z,100533.31
2023-01-06T16:36:13.432Z,100536.84
2023-01-06T16:38:43.485Z,100533.09
2023-01-06T16:41:19.181Z,100526.25
2023-01-06T16:43:52.759Z,100531.00
2023-01-06T16:46:27.701Z,100532.50
2023-01-06T16:50:18.475Z,100521.81
2023-01-06T17:00:29.853Z,100522.38
2023-01-06T17:07:46.985Z,100511.63
2023-01-06T17:17:03.264Z,100514.13
2023-01-06T17:19:41.108Z,100521.31
2023-01-06T17:22:35.437Z,100510.88
2023-01-06T17:25:14.460Z,100522.69
2023-01-06T17:31:40.504Z,100524.50
2023-01-06T17:34:24.568Z,100523.47
2023-01-06T17:36:55.799Z,100532.59
2023-01-06T17:39:31.246Z,100531.38
2023-01-06T17:42:13.031Z,100537.25
2023-01-06T17:44:57.651Z,100536.41
2023-01-06T17:47:24.101Z,100537.72
2023-01-06T17:50:00.790Z,100549.97
2023-01-06T17:52:35.759Z,100549.50
2023-01-06T17:55:42.055Z,100548.75
2023-01-06T17:58:13.715Z,100553.50
2023-01-06T18:00:40.267Z,100560.50
2023-01-06T18:03:12.281Z,100553.97
2023-01-06T18:05:43.983Z,100564.09
2023-01-06T18:08:17.956Z,100559.44
2023-01-06T18:10:45.790Z,100557.53
2023-01-06T18:13:34.580Z,100555.88
2023-01-06T18:16:06.276Z,100550.75
2023-01-06T18:18:37.213Z,100561.53
2023-01-06T18:21:19.064Z,100560.31
2023-01-06T18:23:48.016Z,100568.63
2023-01-06T18:26:26.650Z,100570.69
2023-01-06T18:29:12.721Z,100588.69
2023-01-06T18:36:41.717Z,100586.28
2023-01-06T18:39:08.634Z,100585.25
2023-01-06T18:41:35.206Z,100579.72
2023-01-06T18:44:06.716Z,100585.44
2023-01-06T18:46:33.857Z,100584.94
2023-01-06T18:49:00.686Z,100575.63
2023-01-06T18:51:27.663Z,100579.69
2023-01-06T18:53:55.437Z,100584.19
2023-01-06T18:56:24.870Z,100581.72
2023-01-06T18:58:54.874Z,100580.78
2023-01-06T19:01:40.713Z,100589.09
2023-01-06T19:04:19.616Z,100577.78
2023-01-06T19:06:54.185Z,100578.50
2023-01-06T19:09:29.310Z,100583.94
2023-01-06T19:12:08.117Z,100588.25
2023-01-06T19:14:51.113Z,100587.97
2023-01-06T19:17:33.773Z,100591.47
2023-01-06T19:20:07.829Z,100589.34
2023-01-06T19:22:34.543Z,100587.03
2023-01-06T19:25:21.147Z,100595.69
2023-01-06T19:27:55.015Z,100583.94
2023-01-06T19:30:37.426Z,100583.16
2023-01-06T19:33:25.317Z,100584.53
2023-01-06T19:36:36.596Z,100587.53
2023-01-06T19:39:22.103Z,100583.88
2023-01-06T19:41:50.396Z,100589.00
2023-01-06T19:44:17.432Z,100586.94
2023-01-06T19:46:48.368Z,100589.44
2023-01-06T19:49:25.698Z,100587.19
2023-01-06T19:51:54.637Z,100577.41
2023-01-06T19:54:29.958Z,100576.78
2023-01-06T19:56:57.973Z,100574.66
2023-01-06T19:59:35.533Z,100579.66
2023-01-06T20:02:19.271Z,100570.75
2023-01-06T20:04:46.020Z,100568.22
2023-01-06T20:07:12.777Z,100575.97
2023-01-06T20:09:39.356Z,100580.38
2023-01-06T20:12:06.286Z,100578.56
2023-01-06T20:14:36.371Z,100562.22
2023-01-06T20:17:03.036Z,100566.19
2023-01-06T20:19:29.591Z,100568.22
2023-01-06T20:21:56.133Z,100568.19
2023-01-06T20:24:22.649Z,100561.22
2023-01-06T20:27:06.121Z,100561.50
2023-01-06T20:30:00.672Z,100564.56
2023-01-06T20:32:30.489Z,100555.63
2023-01-06T20:34:57.634Z,100554.06
2023-01-06T20:37:24.284Z,100557.09
2023-01-06T20:39:50.852Z,100554.00
2023-01-06T20:42:21.078Z,100557.13
2023-01-06T20:44:47.607Z,100562.47
2023-01-06T20:47:15.304Z,100551.47
2023-01-06T20:49:41.943Z,100559.13
2023-01-06T20:52:08.479Z,100566.13
2023-01-06T20:54:35.068Z,100552.69
2023-01-06T20:57:01.519Z,100566.16
2023-01-06T20:59:28.171Z,100564.41
2023-01-06T21:01:54.974Z,100569.69
2023-01-06T21:04:21.659Z,100568.59
2023-01-06T21:06:48.372Z,100569.03
2023-01-06T21:09:14.940Z,100562.88
2023-01-06T21:11:41.474Z,100563.84
2023-01-06T21:14:08.065Z,100573.91
2023-01-06T21:16:35.775Z,100574.63
2023-01-06T21:19:02.532Z,100567.53
2023-01-06T21:21:29.116Z,100564.31
2023-01-06T21:23:56.389Z,100572.50
2023-01-06T21:26:33.297Z,100561.56
2023-01-06T21:28:59.795Z,100561.47
2023-01-06T21:31:26.362Z,100561.22
2023-01-06T21:33:52.873Z,100562.09
2023-01-06T21:36:19.283Z,100553.13
2023-01-06T21:39:43.841Z,100546.44
2023-01-06T21:42:30.073Z,100554.75
2023-01-06T21:44:56.669Z,100553.00
2023-01-06T21:47:23.209Z,100558.34
2023-01-06T21:49:51.804Z,100559.84
2023-01-06T21:52:41.315Z,100560.38
2023-01-06T21:55:08.521Z,100561.09
2023-01-06T21:57:36.140Z,100559.91
2023-01-06T22:00:05.964Z,100562.38
2023-01-06T22:03:10.537Z,100567.63
2023-01-06T22:05:37.158Z,100562.47
2023-01-06T22:08:06.813Z,100556.06
2023-01-06T22:10:34.441Z,100554.53
2023-01-06T22:13:03.185Z,100565.03
2023-01-06T22:15:30.483Z,100553.50
2023-01-06T22:18:01.700Z,100571.50
2023-01-06T22:20:31.489Z,100557.66
2023-01-06T22:23:07.835Z,100562.50
2023-01-06T22:25:35.947Z,100557.28
2023-01-06T22:28:59.328Z,100560.47
2023-01-06T22:31:26.221Z,100555.63
2023-01-06T22:33:53.054Z,100566.59
2023-01-06T22:36:20.079Z,100569.53
2023-01-06T22:38:52.834Z,100572.03
2023-01-06T22:41:20.428Z,100560.69
2023-01-06T22:43:47.453Z,100560.03
2023-01-06T22:46:19.538Z,100557.81
2023-01-06T22:48:46.555Z,100561.81
2023-01-06T22:51:13.281Z,100568.09
2023-01-06T22:53:40.542Z,100566.88
2023-01-06T22:56:09.982Z,100564.69
2023-01-06T22:58:38.573Z,100570.97
